sensor_id;sensor_type;location;lat;lon;timestamp;P1;durP1;ratioP1;P2;durP2;ratioP2
38220;SDS011;24023;51.280;7.148;2023-04-15T00:00:10;5.2;;;2.7;;
38220;SDS011;24023;51.280;7.148;2023-04-15T00:05:07;5.2;;;2.7;;
38220;SDS011;24023;51.280;7.148;2023-04-15T00:10:08;4.1;;;2.7;;
38220;SDS011;24023;51.280;7.148;2023-04-15T00:15:08;4.1;;;2.7;;
38220;SDS011;24023;51.280;7.148;2023-04-15T00:20:08;5.0;;;2.7;;
38220;SDS011;24023;51.280;7.148;2023-04-15T00:25:07;5.0;;;2.7;;
38220;SDS011;24023;51.280;7.148;2023-04-15T00:30:09;5.0;;;2.7;;
38220;SDS011;24023;51.280;7.148;2023-04-15T00:35:06;3.7;;;2.4;;
38220;SDS011;24023;51.280;7.148;2023-04-15T00:40:09;3.7;;;2.4;;
38220;SDS011;24023;51.280;7.148;2023-04-15T00:45:10;3.5;;;2.3;;
38220;SDS011;24023;51.280;7.148;2023-04-15T00:50:08;3.5;;;2.3;;
38220;SDS011;24023;51.280;7.148;2023-04-15T00:55:07;3.5;;;2.3;;
38220;SDS011;24023;51.280;7.148;2023-04-15T01:00:11;3.8;;;2.5;;
38220;SDS011;24023;51.280;7.148;2023-04-15T01:05:10;3.8;;;2.5;;
38220;SDS011;24023;51.280;7.148;2023-04-15T01:10:08;4.7;;;2.8;;
38220;SDS011;24023;51.280;7.148;2023-04-15T01:15:10;4.7;;;2.8;;
38220;SDS011;24023;51.280;7.148;2023-04-15T01:20:09;4.2;;;2.7;;
38220;SDS011;24023;51.280;7.148;2023-04-15T01:25:08;4.2;;;2.7;;
38220;SDS011;24023;51.280;7.148;2023-04-15T01:30:10;4.2;;;2.7;;
38220;SDS011;24023;51.280;7.148;2023-04-15T01:35:07;3.6;;;2.9;;
38220;SDS011;24023;51.280;7.148;2023-04-15T01:40:08;3.6;;;2.9;;
38220;SDS011;24023;51.280;7.148;2023-04-15T01:45:09;5.4;;;3.3;;
38220;SDS011;24023;51.280;7.148;2023-04-15T01:50:08;5.4;;;3.3;;
38220;SDS011;24023;51.280;7.148;2023-04-15T01:55:07;4.9;;;3.3;;
38220;SDS011;24023;51.280;7.148;2023-04-15T02:00:11;4.9;;;3.3;;
38220;SDS011;24023;51.280;7.148;2023-04-15T02:05:06;4.9;;;3.3;;
38220;SDS011;24023;51.280;7.148;2023-04-15T02:10:08;4.5;;;3.3;;
38220;SDS011;24023;51.280;7.148;2023-04-15T02:15:08;4.5;;;3.3;;
38220;SDS011;24023;51.280;7.148;2023-04-15T02:20:09;4.6;;;3.6;;
38220;SDS011;24023;51.280;7.148;2023-04-15T02:25:06;4.6;;;3.6;;
38220;SDS011;24023;51.280;7.148;2023-04-15T02:30:09;4.6;;;3.6;;
38220;SDS011;24023;51.280;7.148;2023-04-15T02:35:07;4.1;;;3.4;;
38220;SDS011;24023;51.280;7.148;2023-04-15T02:40:07;4.1;;;3.4;;
38220;SDS011;24023;51.280;7.148;2023-04-15T02:45:11;4.4;;;4.0;;
38220;SDS011;24023;51.280;7.148;2023-04-15T02:50:09;4.4;;;4.0;;
38220;SDS011;24023;51.280;7.148;2023-04-15T02:55:07;4.9;;;4.1;;
38220;SDS011;24023;51.280;7.148;2023-04-15T03:00:11;4.9;;;4.1;;
38220;SDS011;24023;51.280;7.148;2023-04-15T03:05:10;4.9;;;4.1;;
38220;SDS011;24023;51.280;7.148;2023-04-15T03:10:08;5.2;;;4.0;;
38220;SDS011;24023;51.280;7.148;2023-04-15T03:15:08;5.2;;;4.0;;
38220;SDS011;24023;51.280;7.148;2023-04-15T03:20:08;5.3;;;4.3;;
38220;SDS011;24023;51.280;7.148;2023-04-15T03:25:07;5.3;;;4.3;;
38220;SDS011;24023;51.280;7.148;2023-04-15T03:30:10;5.1;;;4.1;;
38220;SDS011;24023;51.280;7.148;2023-04-15T03:35:06;5.1;;;4.1;;
38220;SDS011;24023;51.280;7.148;2023-04-15T03:40:08;4.4;;;3.8;;
38220;SDS011;24023;51.280;7.148;2023-04-15T03:45:09;6.1;;;4.1;;
38220;SDS011;24023;51.280;7.148;2023-04-15T03:50:08;6.1;;;4.1;;
38220;SDS011;24023;51.280;7.148;2023-04-15T03:55:06;5.4;;;4.1;;
38220;SDS011;24023;51.280;7.148;2023-04-15T04:00:11;5.4;;;4.1;;
38220;SDS011;24023;51.280;7.148;2023-04-15T04:05:06;5.4;;;4.1;;
38220;SDS011;24023;51.280;7.148;2023-04-15T04:10:08;5.5;;;3.9;;
38220;SDS011;24023;51.280;7.148;2023-04-15T04:15:08;5.5;;;3.9;;
38220;SDS011;24023;51.280;7.148;2023-04-15T04:20:08;5.0;;;4.2;;
38220;SDS011;24023;51.280;7.148;2023-04-15T04:25:08;5.0;;;4.2;;
38220;SDS011;24023;51.280;7.148;2023-04-15T04:30:09;5.5;;;4.3;;
38220;SDS011;24023;51.280;7.148;2023-04-15T04:35:07;5.5;;;4.3;;
38220;SDS011;24023;51.280;7.148;2023-04-15T04:40:09;5.5;;;4.3;;
38220;SDS011;24023;51.280;7.148;2023-04-15T04:45:10;5.1;;;4.2;;
38220;SDS011;24023;51.280;7.148;2023-04-15T04:50:08;5.1;;;4.2;;
38220;SDS011;24023;51.280;7.148;2023-04-15T04:55:07;5.8;;;5.2;;
38220;SDS011;24023;51.280;7.148;2023-04-15T05:00:10;5.8;;;5.2;;
38220;SDS011;24023;51.280;7.148;2023-04-15T05:05:07;5.8;;;5.2;;
38220;SDS011;24023;51.280;7.148;2023-04-15T05:10:08;7.3;;;5.5;;
38220;SDS011;24023;51.280;7.148;2023-04-15T05:15:08;7.3;;;5.5;;
38220;SDS011;24023;51.280;7.148;2023-04-15T05:20:09;7.7;;;6.1;;
38220;SDS011;24023;51.280;7.148;2023-04-15T05:25:06;7.7;;;6.1;;
38220;SDS011;24023;51.280;7.148;2023-04-15T05:30:10;7.7;;;6.1;;
38220;SDS011;24023;51.280;7.148;2023-04-15T05:35:07;6.8;;;6.1;;
38220;SDS011;24023;51.280;7.148;2023-04-15T05:40:10;7.7;;;6.2;;
38220;SDS011;24023;51.280;7.148;2023-04-15T05:45:09;7.7;;;6.2;;
38220;SDS011;24023;51.280;7.148;2023-04-15T05:50:10;7.8;;;6.5;;
38220;SDS011;24023;51.280;7.148;2023-04-15T05:55:06;7.8;;;6.5;;
38220;SDS011;24023;51.280;7.148;2023-04-15T06:00:14;7.9;;;7.1;;
38220;SDS011;24023;51.280;7.148;2023-04-15T06:05:08;7.9;;;7.1;;
38220;SDS011;24023;51.280;7.148;2023-04-15T06:10:08;7.9;;;7.1;;
38220;SDS011;24023;51.280;7.148;2023-04-15T06:15:09;7.7;;;6.9;;
38220;SDS011;24023;51.280;7.148;2023-04-15T06:20:08;7.7;;;6.9;;
38220;SDS011;24023;51.280;7.148;2023-04-15T06:25:08;8.3;;;6.7;;
38220;SDS011;24023;51.280;7.148;2023-04-15T06:30:09;8.3;;;6.7;;
38220;SDS011;24023;51.280;7.148;2023-04-15T06:35:06;6.6;;;6.0;;
38220;SDS011;24023;51.280;7.148;2023-04-15T06:40:09;6.6;;;6.0;;
38220;SDS011;24023;51.280;7.148;2023-04-15T06:45:10;7.6;;;6.5;;
38220;SDS011;24023;51.280;7.148;2023-04-15T06:50:08;7.6;;;6.5;;
38220;SDS011;24023;51.280;7.148;2023-04-15T06:55:07;7.6;;;6.5;;
38220;SDS011;24023;51.280;7.148;2023-04-15T07:00:11;8.1;;;7.3;;
38220;SDS011;24023;51.280;7.148;2023-04-15T07:05:07;8.1;;;7.3;;
38220;SDS011;24023;51.280;7.148;2023-04-15T07:10:08;8.4;;;7.6;;
38220;SDS011;24023;51.280;7.148;2023-04-15T07:15:08;10.2;;;7.4;;
38220;SDS011;24023;51.280;7.148;2023-04-15T07:20:08;10.2;;;7.4;;
38220;SDS011;24023;51.280;7.148;2023-04-15T07:25:09;7.3;;;6.6;;
38220;SDS011;24023;51.280;7.148;2023-04-15T07:30:10;7.3;;;6.6;;
38220;SDS011;24023;51.280;7.148;2023-04-15T07:35:07;8.4;;;7.2;;
38220;SDS011;24023;51.280;7.148;2023-04-15T07:40:09;8.4;;;7.2;;
38220;SDS011;24023;51.280;7.148;2023-04-15T07:45:10;8.4;;;7.2;;
38220;SDS011;24023;51.280;7.148;2023-04-15T07:50:08;7.6;;;6.9;;
38220;SDS011;24023;51.280;7.148;2023-04-15T07:55:07;7.6;;;6.8;;
38220;SDS011;24023;51.280;7.148;2023-04-15T08:00:11;7.6;;;6.8;;
38220;SDS011;24023;51.280;7.148;2023-04-15T08:05:07;6.8;;;6.1;;
38220;SDS011;24023;51.280;7.148;2023-04-15T08:10:08;6.8;;;6.1;;
38220;SDS011;24023;51.280;7.148;2023-04-15T08:15:08;6.3;;;5.7;;
38220;SDS011;24023;51.280;7.148;2023-04-15T08:20:07;6.3;;;5.7;;
38220;SDS011;24023;51.280;7.148;2023-04-15T08:25:07;7.0;;;5.0;;
38220;SDS011;24023;51.280;7.148;2023-04-15T08:30:10;7.0;;;5.0;;
38220;SDS011;24023;51.280;7.148;2023-04-15T08:35:07;5.9;;;5.3;;
38220;SDS011;24023;51.280;7.148;2023-04-15T08:40:09;5.9;;;5.3;;
38220;SDS011;24023;51.280;7.148;2023-04-15T08:45:10;4.6;;;3.9;;
38220;SDS011;24023;51.280;7.148;2023-04-15T08:50:08;4.6;;;3.9;;
38220;SDS011;24023;51.280;7.148;2023-04-15T08:55:06;4.9;;;4.4;;
38220;SDS011;24023;51.280;7.148;2023-04-15T09:00:10;4.9;;;4.4;;
38220;SDS011;24023;51.280;7.148;2023-04-15T09:05:07;5.6;;;4.6;;
38220;SDS011;24023;51.280;7.148;2023-04-15T09:10:09;5.6;;;4.6;;
38220;SDS011;24023;51.280;7.148;2023-04-15T09:15:09;5.6;;;4.6;;
38220;SDS011;24023;51.280;7.148;2023-04-15T09:20:09;5.2;;;4.7;;
38220;SDS011;24023;51.280;7.148;2023-04-15T09:25:24;5.2;;;4.7;;
38220;SDS011;24023;51.280;7.148;2023-04-15T09:30:10;6.4;;;4.9;;
38220;SDS011;24023;51.280;7.148;2023-04-15T09:35:09;4.1;;;3.7;;
38220;SDS011;24023;51.280;7.148;2023-04-15T09:40:09;4.1;;;3.7;;
38220;SDS011;24023;51.280;7.148;2023-04-15T09:45:09;4.1;;;3.7;;
38220;SDS011;24023;51.280;7.148;2023-04-15T09:50:08;4.1;;;3.7;;
38220;SDS011;24023;51.280;7.148;2023-04-15T09:55:07;4.3;;;3.9;;
38220;SDS011;24023;51.280;7.148;2023-04-15T10:00:11;4.3;;;3.9;;
38220;SDS011;24023;51.280;7.148;2023-04-15T10:05:06;4.2;;;3.8;;
38220;SDS011;24023;51.280;7.148;2023-04-15T10:10:08;4.2;;;3.8;;
38220;SDS011;24023;51.280;7.148;2023-04-15T10:15:09;4.0;;;3.6;;
38220;SDS011;24023;51.280;7.148;2023-04-15T10:20:08;4.0;;;3.6;;
38220;SDS011;24023;51.280;7.148;2023-04-15T10:25:06;3.8;;;3.5;;
38220;SDS011;24023;51.280;7.148;2023-04-15T10:30:10;3.8;;;3.5;;
38220;SDS011;24023;51.280;7.148;2023-04-15T10:35:06;3.8;;;3.5;;
38220;SDS011;24023;51.280;7.148;2023-04-15T10:40:26;4.1;;;3.7;;
38220;SDS011;24023;51.280;7.148;2023-04-15T10:45:15;4.1;;;3.7;;
38220;SDS011;24023;51.280;7.148;2023-04-15T10:50:08;4.3;;;3.7;;
38220;SDS011;24023;51.280;7.148;2023-04-15T10:55:11;4.3;;;3.7;;
38220;SDS011;24023;51.280;7.148;2023-04-15T11:00:11;4.3;;;3.7;;
38220;SDS011;24023;51.280;7.148;2023-04-15T11:05:06;4.1;;;3.7;;
38220;SDS011;24023;51.280;7.148;2023-04-15T11:10:49;4.1;;;3.7;;
38220;SDS011;24023;51.280;7.148;2023-04-15T11:15:38;4.4;;;4.0;;
38220;SDS011;24023;51.280;7.148;2023-04-15T11:20:09;4.4;;;4.0;;
38220;SDS011;24023;51.280;7.148;2023-04-15T11:25:06;4.4;;;4.0;;
38220;SDS011;24023;51.280;7.148;2023-04-15T11:30:16;4.3;;;3.8;;
38220;SDS011;24023;51.280;7.148;2023-04-15T11:35:06;4.3;;;3.8;;
38220;SDS011;24023;51.280;7.148;2023-04-15T11:40:08;4.2;;;3.8;;
38220;SDS011;24023;51.280;7.148;2023-04-15T11:45:10;4.2;;;3.8;;
38220;SDS011;24023;51.280;7.148;2023-04-15T11:50:16;4.2;;;3.8;;
38220;SDS011;24023;51.280;7.148;2023-04-15T11:55:07;4.4;;;3.3;;
38220;SDS011;24023;51.280;7.148;2023-04-15T12:00:10;4.4;;;3.3;;
38220;SDS011;24023;51.280;7.148;2023-04-15T12:05:08;4.1;;;3.8;;
38220;SDS011;24023;51.280;7.148;2023-04-15T12:10:08;4.1;;;3.8;;
38220;SDS011;24023;51.280;7.148;2023-04-15T12:15:08;4.1;;;3.8;;
38220;SDS011;24023;51.280;7.148;2023-04-15T12:20:07;5.4;;;4.8;;
38220;SDS011;24023;51.280;7.148;2023-04-15T12:25:07;5.4;;;4.8;;
38220;SDS011;24023;51.280;7.148;2023-04-15T12:30:11;4.4;;;4.0;;
38220;SDS011;24023;51.280;7.148;2023-04-15T12:35:06;4.4;;;4.0;;
38220;SDS011;24023;51.280;7.148;2023-04-15T12:40:08;4.5;;;4.1;;
38220;SDS011;24023;51.280;7.148;2023-04-15T12:45:10;4.5;;;4.1;;
38220;SDS011;24023;51.280;7.148;2023-04-15T12:50:07;4.5;;;4.1;;
38220;SDS011;24023;51.280;7.148;2023-04-15T12:55:07;4.6;;;4.2;;
38220;SDS011;24023;51.280;7.148;2023-04-15T13:00:11;4.6;;;4.2;;
38220;SDS011;24023;51.280;7.148;2023-04-15T13:05:06;4.5;;;4.1;;
38220;SDS011;24023;51.280;7.148;2023-04-15T13:10:08;4.5;;;4.1;;
38220;SDS011;24023;51.280;7.148;2023-04-15T13:15:10;4.5;;;4.1;;
38220;SDS011;24023;51.280;7.148;2023-04-15T13:20:09;4.7;;;3.9;;
38220;SDS011;24023;51.280;7.148;2023-04-15T13:25:06;4.7;;;3.9;;
38220;SDS011;24023;51.280;7.148;2023-04-15T13:30:09;4.5;;;3.8;;
38220;SDS011;24023;51.280;7.148;2023-04-15T13:35:07;4.5;;;3.8;;
38220;SDS011;24023;51.280;7.148;2023-04-15T13:40:08;3.7;;;3.4;;
38220;SDS011;24023;51.280;7.148;2023-04-15T13:45:10;3.7;;;3.4;;
38220;SDS011;24023;51.280;7.148;2023-04-15T13:50:08;3.7;;;3.4;;
38220;SDS011;24023;51.280;7.148;2023-04-15T13:55:06;4.4;;;4.0;;
38220;SDS011;24023;51.280;7.148;2023-04-15T14:00:11;4.4;;;4.0;;
38220;SDS011;24023;51.280;7.148;2023-04-15T14:05:06;4.3;;;3.9;;
38220;SDS011;24023;51.280;7.148;2023-04-15T14:10:07;4.3;;;3.9;;
38220;SDS011;24023;51.280;7.148;2023-04-15T14:15:08;3.7;;;3.3;;
38220;SDS011;24023;51.280;7.148;2023-04-15T14:20:08;3.7;;;3.3;;
38220;SDS011;24023;51.280;7.148;2023-04-15T14:25:06;3.7;;;3.3;;
38220;SDS011;24023;51.280;7.148;2023-04-15T14:30:10;3.9;;;3.5;;
38220;SDS011;24023;51.280;7.148;2023-04-15T14:35:06;3.9;;;3.5;;
38220;SDS011;24023;51.280;7.148;2023-04-15T14:40:08;4.6;;;3.6;;
38220;SDS011;24023;51.280;7.148;2023-04-15T14:45:10;4.6;;;3.6;;
38220;SDS011;24023;51.280;7.148;2023-04-15T14:50:08;4.6;;;3.6;;
38220;SDS011;24023;51.280;7.148;2023-04-15T14:55:07;3.2;;;2.9;;
38220;SDS011;24023;51.280;7.148;2023-04-15T15:00:11;3.2;;;2.9;;
38220;SDS011;24023;51.280;7.148;2023-04-15T15:05:08;3.9;;;3.3;;
38220;SDS011;24023;51.280;7.148;2023-04-15T15:10:08;3.9;;;3.3;;
38220;SDS011;24023;51.280;7.148;2023-04-15T15:15:09;3.9;;;3.3;;
38220;SDS011;24023;51.280;7.148;2023-04-15T15:20:08;3.3;;;2.9;;
38220;SDS011;24023;51.280;7.148;2023-04-15T15:25:06;2.9;;;2.6;;
38220;SDS011;24023;51.280;7.148;2023-04-15T15:30:09;2.9;;;2.6;;
38220;SDS011;24023;51.280;7.148;2023-04-15T15:35:07;2.9;;;2.6;;
38220;SDS011;24023;51.280;7.148;2023-04-15T15:40:08;2.8;;;2.5;;
38220;SDS011;24023;51.280;7.148;2023-04-15T15:45:09;2.8;;;2.5;;
38220;SDS011;24023;51.280;7.148;2023-04-15T15:50:08;3.1;;;2.8;;
38220;SDS011;24023;51.280;7.148;2023-04-15T15:55:06;3.1;;;2.8;;
38220;SDS011;24023;51.280;7.148;2023-04-15T16:00:10;3.1;;;2.8;;
38220;SDS011;24023;51.280;7.148;2023-04-15T16:05:06;3.3;;;2.7;;
38220;SDS011;24023;51.280;7.148;2023-04-15T16:10:08;3.3;;;2.7;;
38220;SDS011;24023;51.280;7.148;2023-04-15T16:15:08;3.3;;;2.3;;
38220;SDS011;24023;51.280;7.148;2023-04-15T16:20:08;3.3;;;2.3;;
38220;SDS011;24023;51.280;7.148;2023-04-15T16:25:06;3.3;;;2.3;;
38220;SDS011;24023;51.280;7.148;2023-04-15T16:30:09;3.6;;;2.4;;
38220;SDS011;24023;51.280;7.148;2023-04-15T16:35:07;3.6;;;2.4;;
38220;SDS011;24023;51.280;7.148;2023-04-15T16:40:08;3.1;;;2.6;;
38220;SDS011;24023;51.280;7.148;2023-04-15T16:45:10;3.1;;;2.6;;
38220;SDS011;24023;51.280;7.148;2023-04-15T16:50:08;3.9;;;2.5;;
38220;SDS011;24023;51.280;7.148;2023-04-15T16:55:07;3.9;;;2.5;;
38220;SDS011;24023;51.280;7.148;2023-04-15T17:00:11;3.9;;;2.5;;
38220;SDS011;24023;51.280;7.148;2023-04-15T17:05:07;2.8;;;2.3;;
38220;SDS011;24023;51.280;7.148;2023-04-15T17:10:08;2.8;;;2.3;;
38220;SDS011;24023;51.280;7.148;2023-04-15T17:15:08;3.1;;;2.2;;
38220;SDS011;24023;51.280;7.148;2023-04-15T17:20:09;3.1;;;2.2;;
38220;SDS011;24023;51.280;7.148;2023-04-15T17:25:06;3.1;;;2.2;;
38220;SDS011;24023;51.280;7.148;2023-04-15T17:30:11;3.2;;;2.8;;
38220;SDS011;24023;51.280;7.148;2023-04-15T17:35:06;3.2;;;2.8;;
38220;SDS011;24023;51.280;7.148;2023-04-15T17:40:08;3.2;;;2.7;;
38220;SDS011;24023;51.280;7.148;2023-04-15T17:45:09;3.2;;;2.7;;
38220;SDS011;24023;51.280;7.148;2023-04-15T17:50:08;3.2;;;2.7;;
38220;SDS011;24023;51.280;7.148;2023-04-15T17:55:06;5.5;;;3.3;;
38220;SDS011;24023;51.280;7.148;2023-04-15T18:00:11;5.5;;;3.3;;
38220;SDS011;24023;51.280;7.148;2023-04-15T18:05:06;2.9;;;2.6;;
38220;SDS011;24023;51.280;7.148;2023-04-15T18:10:08;2.9;;;2.6;;
38220;SDS011;24023;51.280;7.148;2023-04-15T18:15:09;2.8;;;2.4;;
38220;SDS011;24023;51.280;7.148;2023-04-15T18:20:07;2.8;;;2.4;;
38220;SDS011;24023;51.280;7.148;2023-04-15T18:25:06;2.8;;;2.4;;
38220;SDS011;24023;51.280;7.148;2023-04-15T18:30:10;2.8;;;2.0;;
38220;SDS011;24023;51.280;7.148;2023-04-15T18:35:07;2.8;;;2.0;;
38220;SDS011;24023;51.280;7.148;2023-04-15T18:40:07;2.3;;;2.1;;
38220;SDS011;24023;51.280;7.148;2023-04-15T18:45:11;2.3;;;2.1;;
38220;SDS011;24023;51.280;7.148;2023-04-15T18:50:08;2.3;;;2.1;;
38220;SDS011;24023;51.280;7.148;2023-04-15T18:55:06;2.3;;;2.1;;
38220;SDS011;24023;51.280;7.148;2023-04-15T19:00:12;2.3;;;2.1;;
38220;SDS011;24023;51.280;7.148;2023-04-15T19:05:06;9.3;;;6.5;;
38220;SDS011;24023;51.280;7.148;2023-04-15T19:10:08;9.3;;;6.5;;
38220;SDS011;24023;51.280;7.148;2023-04-15T19:15:08;5.0;;;4.0;;
38220;SDS011;24023;51.280;7.148;2023-04-15T19:20:08;5.0;;;4.0;;
38220;SDS011;24023;51.280;7.148;2023-04-15T19:25:08;2.8;;;2.4;;
38220;SDS011;24023;51.280;7.148;2023-04-15T19:30:09;2.8;;;2.4;;
38220;SDS011;24023;51.280;7.148;2023-04-15T19:35:06;3.1;;;2.0;;
38220;SDS011;24023;51.280;7.148;2023-04-15T19:40:08;3.1;;;2.0;;
38220;SDS011;24023;51.280;7.148;2023-04-15T19:45:10;3.1;;;2.0;;
38220;SDS011;24023;51.280;7.148;2023-04-15T19:50:10;2.8;;;2.5;;
38220;SDS011;24023;51.280;7.148;2023-04-15T19:55:07;5.0;;;3.2;;
38220;SDS011;24023;51.280;7.148;2023-04-15T20:00:11;5.0;;;3.2;;
38220;SDS011;24023;51.280;7.148;2023-04-15T20:05:08;2.9;;;2.5;;
38220;SDS011;24023;51.280;7.148;2023-04-15T20:10:11;2.9;;;2.5;;
38220;SDS011;24023;51.280;7.148;2023-04-15T20:15:08;3.1;;;2.5;;
38220;SDS011;24023;51.280;7.148;2023-04-15T20:20:08;3.1;;;2.5;;
38220;SDS011;24023;51.280;7.148;2023-04-15T20:25:06;2.7;;;2.0;;
38220;SDS011;24023;51.280;7.148;2023-04-15T20:30:09;2.7;;;2.0;;
38220;SDS011;24023;51.280;7.148;2023-04-15T20:35:06;4.6;;;3.6;;
38220;SDS011;24023;51.280;7.148;2023-04-15T20:40:08;4.6;;;3.6;;
38220;SDS011;24023;51.280;7.148;2023-04-15T20:45:11;5.2;;;4.4;;
38220;SDS011;24023;51.280;7.148;2023-04-15T20:50:08;5.2;;;4.4;;
38220;SDS011;24023;51.280;7.148;2023-04-15T20:55:06;4.4;;;3.9;;
38220;SDS011;24023;51.280;7.148;2023-04-15T21:00:10;4.4;;;3.9;;
38220;SDS011;24023;51.280;7.148;2023-04-15T21:05:06;4.4;;;3.9;;
38220;SDS011;24023;51.280;7.148;2023-04-15T21:10:08;5.3;;;4.0;;
38220;SDS011;24023;51.280;7.148;2023-04-15T21:15:08;9.1;;;4.1;;
38220;SDS011;24023;51.280;7.148;2023-04-15T21:20:08;9.1;;;4.1;;
38220;SDS011;24023;51.280;7.148;2023-04-15T21:25:07;5.6;;;4.6;;
38220;SDS011;24023;51.280;7.148;2023-04-15T21:30:09;5.6;;;4.6;;
38220;SDS011;24023;51.280;7.148;2023-04-15T21:35:06;14.3;;;5.7;;
38220;SDS011;24023;51.280;7.148;2023-04-15T21:40:08;14.3;;;5.7;;
38220;SDS011;24023;51.280;7.148;2023-04-15T21:45:09;15.7;;;6.7;;
38220;SDS011;24023;51.280;7.148;2023-04-15T21:50:08;15.7;;;6.7;;
38220;SDS011;24023;51.280;7.148;2023-04-15T21:55:06;28.7;;;7.7;;
38220;SDS011;24023;51.280;7.148;2023-04-15T22:00:18;28.7;;;7.7;;
38220;SDS011;24023;51.280;7.148;2023-04-15T22:05:07;31.5;;;8.9;;
38220;SDS011;24023;51.280;7.148;2023-04-15T22:10:08;31.5;;;8.9;;
38220;SDS011;24023;51.280;7.148;2023-04-15T22:15:07;17.2;;;8.9;;
38220;SDS011;24023;51.280;7.148;2023-04-15T22:20:07;17.2;;;8.9;;
38220;SDS011;24023;51.280;7.148;2023-04-15T22:25:06;58.7;;;9.2;;
38220;SDS011;24023;51.280;7.148;2023-04-15T22:30:09;58.7;;;9.2;;
38220;SDS011;24023;51.280;7.148;2023-04-15T22:35:07;18.2;;;8.2;;
38220;SDS011;24023;51.280;7.148;2023-04-15T22:40:07;18.2;;;8.2;;
38220;SDS011;24023;51.280;7.148;2023-04-15T22:45:10;24.9;;;9.7;;
38220;SDS011;24023;51.280;7.148;2023-04-15T22:50:08;24.9;;;9.7;;
38220;SDS011;24023;51.280;7.148;2023-04-15T22:55:06;13.6;;;10.3;;
38220;SDS011;24023;51.280;7.148;2023-04-15T23:00:11;13.6;;;10.3;;
38220;SDS011;24023;51.280;7.148;2023-04-15T23:05:06;19.8;;;12.1;;
38220;SDS011;24023;51.280;7.148;2023-04-15T23:10:07;19.8;;;12.1;;
38220;SDS011;24023;51.280;7.148;2023-04-15T23:15:08;19.5;;;12.8;;
38220;SDS011;24023;51.280;7.148;2023-04-15T23:20:08;19.5;;;12.8;;
38220;SDS011;24023;51.280;7.148;2023-04-15T23:25:06;57.5;;;14.1;;
38220;SDS011;24023;51.280;7.148;2023-04-15T23:30:09;57.5;;;14.1;;
38220;SDS011;24023;51.280;7.148;2023-04-15T23:35:07;44.1;;;14.3;;
38220;SDS011;24023;51.280;7.148;2023-04-15T23:40:08;44.1;;;14.3;;
38220;SDS011;24023;51.280;7.148;2023-04-15T23:45:10;63.5;;;14.6;;
38220;SDS011;24023;51.280;7.148;2023-04-15T23:50:07;63.5;;;14.6;;
38220;SDS011;24023;51.280;7.148;2023-04-15T23:55:07;33.3;;;12.6;;
